createdAt,value
2022-10-03T00:02:00.464Z,101633.72
2022-10-03T00:04:40.319Z,101634.59
2022-10-03T00:07:15.758Z,101637.81
2022-10-03T00:09:51.390Z,101642.94
2022-10-03T00:12:36.959Z,101641.53
2022-10-03T00:15:10.280Z,101637.13
2022-10-03T00:17:43.402Z,101638.13
2022-10-03T00:20:21.171Z,101637.47
2022-10-03T00:22:54.687Z,101652.28
2022-10-03T00:25:28.589Z,101658.75
2022-10-03T00:28:08.787Z,101664.69
2022-10-03T00:30:46.515Z,101670.50
2022-10-03T00:33:21.768Z,101676.72
2022-10-03T00:35:59.553Z,101668.56
2022-10-03T00:38:48.453Z,101669.09
2022-10-03T00:41:31.289Z,101670.00
2022-10-03T00:44:23.268Z,101668.63
2022-10-03T00:47:02.179Z,101675.88
2022-10-03T00:49:36.927Z,101667.78
2022-10-03T00:52:14.020Z,101684.28
2022-10-03T00:54:51.207Z,101686.19
2022-10-03T00:57:29.424Z,101690.56
2022-10-03T01:00:07.991Z,101690.38
2022-10-03T01:02:44.753Z,101690.47
2022-10-03T01:05:17.025Z,101692.44
2022-10-03T01:08:01.003Z,101696.38
2022-10-03T01:10:33.407Z,101692.53
2022-10-03T01:13:10.774Z,101692.84
2022-10-03T01:15:44.881Z,101694.81
2022-10-03T01:18:19.429Z,101693.34
2022-10-03T01:20:53.571Z,101696.41
2022-10-03T01:23:50.799Z,101698.22
2022-10-03T01:26:36.479Z,101697.94
2022-10-03T01:29:29.303Z,101710.72
2022-10-03T01:32:01.017Z,101700.09
2022-10-03T01:34:32.405Z,101706.63
2022-10-03T01:37:06.143Z,101701.59
2022-10-03T01:39:38.234Z,101701.50
2022-10-03T01:42:09.847Z,101711.16
2022-10-03T01:44:42.739Z,101707.50
2022-10-03T01:47:18.322Z,101704.06
2022-10-03T01:49:49.462Z,101710.31
2022-10-03T01:52:22.198Z,101716.84
2022-10-03T01:54:53.560Z,101711.97
2022-10-03T01:57:25.819Z,101712.47
2022-10-03T01:59:58.456Z,101721.69
2022-10-03T02:02:32.055Z,101722.38
2022-10-03T02:05:04.303Z,101728.09
2022-10-03T02:07:40.687Z,101736.00
2022-10-03T02:10:19.388Z,101728.59
2022-10-03T02:12:51.657Z,101735.69
2022-10-03T02:15:25.311Z,101729.25
2022-10-03T02:17:57.807Z,101734.41
2022-10-03T02:20:31.099Z,101738.63
2022-10-03T02:22:59.576Z,101738.03
2022-10-03T02:25:31.708Z,101740.75
2022-10-03T02:28:19.465Z,101732.84
2022-10-03T02:30:57.277Z,101749.25
2022-10-03T02:33:43.473Z,101748.31
2022-10-03T02:36:29.851Z,101746.66
2022-10-03T02:39:18.589Z,101747.97
2022-10-03T02:42:02.906Z,101752.09
2022-10-03T02:44:55.618Z,101748.47
2022-10-03T02:47:56.806Z,101751.91
2022-10-03T02:50:50.952Z,101746.47
2022-10-03T02:53:36.484Z,101751.63
2022-10-03T02:56:22.090Z,101748.56
2022-10-03T02:58:57.912Z,101752.00
2022-10-03T03:01:42.582Z,101754.13
2022-10-03T03:04:23.612Z,101762.53
2022-10-03T03:06:57.514Z,101757.31
2022-10-03T03:09:40.279Z,101758.06
2022-10-03T03:12:23.558Z,101762.75
2022-10-03T03:15:02.605Z,101761.84
2022-10-03T03:17:35.920Z,101765.31
2022-10-03T03:20:25.130Z,101765.84
2022-10-03T03:23:09.573Z,101763.09
2022-10-03T03:25:56.330Z,101763.94
2022-10-03T03:28:32.253Z,101757.69
2022-10-03T03:31:06.572Z,101768.69
2022-10-03T03:33:41.616Z,101764.78
2022-10-03T03:36:16.386Z,101768.09
2022-10-03T03:38:49.286Z,101770.47
2022-10-03T03:41:27.163Z,101766.72
2022-10-03T03:44:05.666Z,101768.16
2022-10-03T03:46:41.732Z,101769.69
2022-10-03T03:49:34.919Z,101760.94
2022-10-03T03:52:13.602Z,101768.69
2022-10-03T03:54:50.529Z,101769.63
2022-10-03T03:57:33.945Z,101771.78
2022-10-03T04:00:08.843Z,101770.63
2022-10-03T04:02:46.867Z,101771.94
2022-10-03T04:05:23.892Z,101768.34
2022-10-03T04:08:00.309Z,101770.38
2022-10-03T04:10:32.356Z,101776.59
2022-10-03T04:13:10.693Z,101780.72
2022-10-03T04:15:48.196Z,101781.53
2022-10-03T04:18:42.073Z,101790.75
2022-10-03T04:21:19.959Z,101796.66
2022-10-03T04:24:01.182Z,101791.69
2022-10-03T04:26:37.757Z,101793.00
2022-10-03T04:29:32.826Z,101789.94
2022-10-03T04:32:09.118Z,101789.00
2022-10-03T04:34:44.151Z,101787.59
2022-10-03T04:37:28.344Z,101793.13
2022-10-03T04:40:06.761Z,101796.41
2022-10-03T04:42:40.913Z,101788.72
2022-10-03T04:45:15.821Z,101791.50
2022-10-03T04:47:45.864Z,101785.59
2022-10-03T04:50:25.412Z,101789.72
2022-10-03T04:53:06.047Z,101794.19
2022-10-03T04:55:41.170Z,101796.84
2022-10-03T04:58:18.368Z,101794.22
2022-10-03T05:00:51.889Z,101788.69
2022-10-03T05:03:22.830Z,101791.81
2022-10-03T05:05:55.008Z,101793.84
2022-10-03T05:08:32.832Z,101796.16
2022-10-03T05:11:19.661Z,101792.75
2022-10-03T05:13:54.631Z,101793.28
2022-10-03T05:16:30.178Z,101803.81
2022-10-03T05:19:06.057Z,101788.16
2022-10-03T05:21:37.586Z,101784.84
2022-10-03T05:24:15.475Z,101795.91
2022-10-03T05:26:51.927Z,101798.72
2022-10-03T05:29:26.124Z,101795.06
2022-10-03T05:32:00.646Z,101799.84
2022-10-03T05:34:36.418Z,101800.31
2022-10-03T05:37:18.657Z,101802.28
2022-10-03T05:39:54.673Z,101801.72
2022-10-03T05:42:50.984Z,101806.81
2022-10-03T05:45:25.604Z,101807.38
2022-10-03T05:47:56.496Z,101808.69
2022-10-03T05:50:42.948Z,101813.56
2022-10-03T05:53:23.000Z,101824.31
2022-10-03T05:56:00.737Z,101828.81
2022-10-03T05:58:35.956Z,101832.94
2022-10-03T06:01:19.871Z,101841.09
2022-10-03T06:03:57.731Z,101846.88
2022-10-03T06:06:28.303Z,101843.97
2022-10-03T06:09:07.903Z,101838.41
2022-10-03T06:11:44.425Z,101842.38
2022-10-03T06:14:21.456Z,101841.41
2022-10-03T06:16:54.203Z,101849.16
2022-10-03T06:19:33.839Z,101857.13
2022-10-03T06:22:23.476Z,101853.66
2022-10-03T06:25:09.468Z,101852.63
2022-10-03T06:27:52.348Z,101852.13
2022-10-03T06:30:22.846Z,101851.34
2022-10-03T06:33:08.513Z,101843.13
2022-10-03T06:36:06.876Z,101846.69
2022-10-03T06:38:54.146Z,101852.88
2022-10-03T06:41:43.409Z,101857.97
2022-10-03T06:44:23.560Z,101860.06
2022-10-03T06:47:04.520Z,101864.66
2022-10-03T06:49:37.040Z,101853.38
2022-10-03T06:52:13.508Z,101854.59
2022-10-03T06:55:08.460Z,101848.94
2022-10-03T06:57:49.127Z,101844.75
2022-10-03T07:00:19.614Z,101851.44
2022-10-03T07:03:21.542Z,101850.06
2022-10-03T07:06:04.346Z,101854.47
2022-10-03T07:08:43.666Z,101852.97
2022-10-03T07:11:32.805Z,101853.03
2022-10-03T07:14:16.769Z,101866.25
2022-10-03T07:16:59.778Z,101862.88
2022-10-03T07:19:45.382Z,101863.09
2022-10-03T07:22:30.946Z,101867.97
2022-10-03T07:25:18.439Z,101872.47
2022-10-03T07:27:55.666Z,101872.25
2022-10-03T07:30:24.249Z,101875.06
2022-10-03T07:33:11.433Z,101874.09
2022-10-03T07:36:03.564Z,101872.19
2022-10-03T07:39:00.918Z,101872.41
2022-10-03T07:41:52.669Z,101862.44
2022-10-03T07:44:40.113Z,101879.31
2022-10-03T07:47:23.080Z,101870.81
2022-10-03T07:50:05.528Z,101883.09
2022-10-03T07:52:40.258Z,101875.94
2022-10-03T07:55:21.977Z,101876.28
2022-10-03T07:58:04.214Z,101876.34
2022-10-03T08:00:42.071Z,101887.13
2022-10-03T08:03:30.862Z,101882.47
2022-10-03T08:06:16.184Z,101888.78
2022-10-03T08:08:56.775Z,101888.47
2022-10-03T08:11:42.808Z,101906.38
2022-10-03T08:14:17.939Z,101899.31
2022-10-03T08:16:57.867Z,101894.09
2022-10-03T08:19:33.773Z,101898.59
2022-10-03T08:22:06.835Z,101903.91
2022-10-03T08:24:51.187Z,101898.72
2022-10-03T08:27:28.240Z,101908.03
2022-10-03T08:30:04.877Z,101910.72
2022-10-03T08:32:50.994Z,101914.06
2022-10-03T08:35:35.181Z,101916.59
2022-10-03T08:38:18.917Z,101916.56
2022-10-03T08:41:05.318Z,101903.06
2022-10-03T08:43:55.172Z,101904.16
2022-10-03T08:46:40.816Z,101907.59
2022-10-03T08:49:36.006Z,101911.16
2022-10-03T08:52:11.432Z,101918.69
2022-10-03T08:54:51.330Z,101916.44
2022-10-03T08:57:24.720Z,101908.72
2022-10-03T09:00:13.656Z,101910.00
2022-10-03T09:06:19.837Z,101914.72
2022-10-03T09:09:06.270Z,101904.41
2022-10-03T09:11:51.826Z,101910.59
2022-10-03T09:14:49.727Z,101913.53
2022-10-03T09:17:31.104Z,101917.38
2022-10-03T09:20:20.995Z,101910.28
2022-10-03T09:23:04.033Z,101910.41
2022-10-03T09:25:44.048Z,101909.75
2022-10-03T09:28:27.078Z,101907.00
2022-10-03T09:31:03.965Z,101910.41
2022-10-03T09:33:50.566Z,101912.41
2022-10-03T09:36:31.020Z,101908.97
2022-10-03T09:39:13.838Z,101899.84
2022-10-03T09:42:00.204Z,101903.56
2022-10-03T09:44:37.627Z,101900.53
2022-10-03T09:47:23.307Z,101898.06
2022-10-03T09:50:09.126Z,101891.94
2022-10-03T09:52:46.778Z,101899.63
2022-10-03T09:55:26.976Z,101891.97
2022-10-03T09:58:11.654Z,101895.25
2022-10-03T10:00:58.354Z,101892.69
2022-10-03T10:03:51.765Z,101893.31
2022-10-03T10:06:28.077Z,101892.00
2022-10-03T10:09:13.991Z,101889.38
2022-10-03T10:12:02.467Z,101892.66
2022-10-03T10:14:57.576Z,101888.63
2022-10-03T10:17:48.531Z,101886.47
2022-10-03T10:20:26.077Z,101885.25
2022-10-03T10:23:11.621Z,101884.94
2022-10-03T10:26:02.662Z,101875.72
2022-10-03T10:28:35.720Z,101875.69
2022-10-03T10:31:14.931Z,101866.47
2022-10-03T10:34:01.625Z,101872.97
2022-10-03T10:36:47.221Z,101866.03
2022-10-03T10:39:42.230Z,101873.59
2022-10-03T10:42:33.923Z,101864.38
2022-10-03T10:45:19.657Z,101856.22
2022-10-03T10:48:01.687Z,101862.75
2022-10-03T10:50:53.518Z,101860.03
2022-10-03T10:53:48.249Z,101868.47
2022-10-03T10:56:31.026Z,101868.84
2022-10-03T10:59:17.756Z,101861.00
2022-10-03T11:02:08.258Z,101862.94
2022-10-03T11:04:54.012Z,101863.53
2022-10-03T11:07:53.852Z,101865.00
2022-10-03T11:10:35.075Z,101859.47
2022-10-03T11:13:23.022Z,101847.16
2022-10-03T11:16:09.504Z,101846.03
2022-10-03T11:18:59.409Z,101849.88
2022-10-03T11:21:42.565Z,101844.91
2022-10-03T11:24:21.712Z,101843.19
2022-10-03T11:27:08.681Z,101847.47
2022-10-03T11:30:04.935Z,101839.28
2022-10-03T11:33:01.831Z,101841.00
2022-10-03T11:35:52.263Z,101844.22
2022-10-03T11:38:22.727Z,101834.41
2022-10-03T11:40:57.580Z,101839.56
2022-10-03T11:44:01.393Z,101832.53
2022-10-03T11:46:38.054Z,101840.19
2022-10-03T11:49:11.544Z,101839.44
2022-10-03T11:51:42.320Z,101834.94
2022-10-03T11:54:31.005Z,101848.28
2022-10-03T11:57:08.448Z,101841.44
2022-10-03T11:59:55.070Z,101843.66
2022-10-03T12:02:38.655Z,101846.56
2022-10-03T12:05:08.966Z,101841.78
2022-10-03T12:08:03.228Z,101837.84
2022-10-03T12:10:39.113Z,101834.69
2022-10-03T12:13:15.016Z,101841.78
2022-10-03T12:15:44.320Z,101832.34
2022-10-03T12:18:15.162Z,101831.53
2022-10-03T12:20:53.238Z,101829.59
2022-10-03T12:23:27.486Z,101837.22
2022-10-03T12:25:57.468Z,101823.19
2022-10-03T12:28:28.771Z,101832.97
2022-10-03T12:31:01.259Z,101825.63
2022-10-03T12:33:46.784Z,101821.53
2022-10-03T12:36:16.954Z,101816.59
2022-10-03T12:38:55.870Z,101815.41
2022-10-03T12:41:26.990Z,101819.84
2022-10-03T12:44:05.841Z,101816.56
2022-10-03T12:46:40.278Z,101825.38
2022-10-03T12:49:12.662Z,101819.19
2022-10-03T12:51:48.385Z,101825.22
2022-10-03T12:54:25.875Z,101821.00
2022-10-03T12:57:08.422Z,101821.00
2022-10-03T12:59:42.106Z,101822.31
2022-10-03T13:02:20.348Z,101824.44
2022-10-03T13:04:55.160Z,101824.00
2022-10-03T13:07:28.263Z,101814.25
2022-10-03T13:10:05.606Z,101821.97
2022-10-03T13:12:39.084Z,101829.53
2022-10-03T13:15:26.604Z,101830.75
2022-10-03T13:18:00.639Z,101822.00
2022-10-03T13:20:31.328Z,101821.66
2022-10-03T13:23:04.369Z,101823.78
2022-10-03T13:25:36.698Z,101811.56
2022-10-03T13:28:10.602Z,101811.91
2022-10-03T13:30:43.280Z,101821.28
2022-10-03T13:33:16.595Z,101807.13
2022-10-03T13:36:01.613Z,101810.94
2022-10-03T13:38:51.169Z,101817.25
2022-10-03T13:41:29.188Z,101804.56
2022-10-03T13:43:59.433Z,101801.97
2022-10-03T13:46:31.165Z,101802.59
2022-10-03T13:49:02.517Z,101796.44
2022-10-03T13:51:40.706Z,101798.28
2022-10-03T13:54:10.983Z,101790.00
2022-10-03T13:56:45.577Z,101790.00
2022-10-03T13:59:26.892Z,101791.19
2022-10-03T14:01:59.463Z,101792.06
2022-10-03T14:04:42.711Z,101785.84
2022-10-03T14:07:15.751Z,101784.88
2022-10-03T14:10:04.313Z,101784.09
2022-10-03T14:12:54.979Z,101786.78
2022-10-03T14:15:31.106Z,101783.28
2022-10-03T14:18:05.355Z,101779.63
2022-10-03T14:20:39.707Z,101773.78
2022-10-03T14:23:16.953Z,101765.22
2022-10-03T14:25:47.766Z,101752.88
2022-10-03T14:28:18.615Z,101772.16
2022-10-03T14:31:05.530Z,101765.34
2022-10-03T14:33:38.970Z,101764.50
2022-10-03T14:36:20.181Z,101759.38
2022-10-03T14:39:01.739Z,101756.66
2022-10-03T14:41:37.950Z,101758.06
2022-10-03T14:44:13.320Z,101750.09
2022-10-03T14:46:43.800Z,101752.94
2022-10-03T14:49:40.707Z,101759.84
2022-10-03T14:52:10.503Z,101757.63
2022-10-03T14:54:39.805Z,101757.41
2022-10-03T14:57:15.827Z,101758.09
2022-10-03T14:59:50.844Z,101756.22
2022-10-03T15:02:24.682Z,101755.06
2022-10-03T15:04:54.885Z,101744.34
2022-10-03T15:07:36.018Z,101746.25
2022-10-03T15:10:07.088Z,101745.94
2022-10-03T15:12:35.398Z,101744.72
2022-10-03T15:15:05.489Z,101747.41
2022-10-03T15:17:35.023Z,101737.78
2022-10-03T15:20:03.806Z,101745.28
2022-10-03T15:22:35.591Z,101737.44
2022-10-03T15:25:09.727Z,101737.97
2022-10-03T15:27:40.885Z,101737.63
2022-10-03T15:30:19.603Z,101734.53
2022-10-03T15:32:49.767Z,101726.03
2022-10-03T15:35:19.838Z,101721.81
2022-10-03T15:37:50.026Z,101716.91
2022-10-03T15:40:22.575Z,101724.28
2022-10-03T15:42:52.837Z,101712.53
2022-10-03T15:45:24.974Z,101716.28
2022-10-03T15:47:53.561Z,101707.47
2022-10-03T15:50:24.302Z,101703.56
2022-10-03T15:52:54.440Z,101704.00
2022-10-03T15:55:25.267Z,101703.34
2022-10-03T15:57:55.230Z,101709.34
2022-10-03T16:00:24.484Z,101706.50
2022-10-03T16:02:55.716Z,101708.38
2022-10-03T16:05:24.850Z,101690.59
2022-10-03T16:07:58.269Z,101692.69
2022-10-03T16:10:28.028Z,101705.38
2022-10-03T16:13:01.833Z,101697.84
2022-10-03T16:15:39.026Z,101699.22
2022-10-03T16:18:11.478Z,101696.75
2022-10-03T16:20:41.432Z,101702.66
2022-10-03T16:23:12.919Z,101703.78
2022-10-03T16:25:43.735Z,101707.88
2022-10-03T16:28:14.081Z,101710.63
2022-10-03T16:30:43.483Z,101709.22
2022-10-03T16:33:17.228Z,101708.63
2022-10-03T16:35:46.186Z,101702.50
2022-10-03T16:38:20.463Z,101703.44
2022-10-03T16:40:53.443Z,101708.97
2022-10-03T16:43:22.207Z,101702.34
2022-10-03T16:45:50.224Z,101704.59
2022-10-03T16:48:38.701Z,101702.91
2022-10-03T16:51:10.292Z,101703.75
2022-10-03T16:53:41.701Z,101707.50
2022-10-03T16:56:13.943Z,101703.69
2022-10-03T16:58:44.660Z,101697.41
2022-10-03T17:01:26.921Z,101694.84
2022-10-03T17:03:59.688Z,101699.69
2022-10-03T17:06:30.461Z,101696.47
2022-10-03T17:09:03.510Z,101695.22
2022-10-03T17:11:33.511Z,101702.63
2022-10-03T17:14:04.735Z,101693.69
2022-10-03T17:16:39.257Z,101696.03
2022-10-03T17:19:12.744Z,101699.31
2022-10-03T17:21:42.410Z,101698.44
2022-10-03T17:24:14.460Z,101693.00
2022-10-03T17:26:44.684Z,101684.75
2022-10-03T17:29:17.685Z,101690.84
2022-10-03T17:31:47.082Z,101692.66
2022-10-03T17:34:17.354Z,101688.41
2022-10-03T17:37:04.640Z,101685.50
2022-10-03T17:39:38.453Z,101687.47
2022-10-03T17:42:10.175Z,101688.03
2022-10-03T17:44:47.311Z,101693.03
2022-10-03T17:47:19.846Z,101682.72
2022-10-03T17:49:51.352Z,101682.78
2022-10-03T17:52:20.138Z,101693.38
2022-10-03T17:54:51.937Z,101680.03
2022-10-03T17:57:23.338Z,101680.13
2022-10-03T17:59:55.029Z,101675.75
2022-10-03T18:02:26.613Z,101677.22
2022-10-03T18:05:00.894Z,101675.06
2022-10-03T18:07:29.475Z,101681.38
2022-10-03T18:09:59.059Z,101678.72
2022-10-03T18:12:31.099Z,101672.44
2022-10-03T18:15:13.886Z,101674.09
2022-10-03T18:17:51.085Z,101676.63
2022-10-03T18:20:31.849Z,101681.78
2022-10-03T18:23:01.857Z,101670.31
2022-10-03T18:26:15.071Z,101671.91
2022-10-03T18:28:42.640Z,101673.81
2022-10-03T18:31:12.817Z,101673.81
2022-10-03T18:33:48.656Z,101670.81
2022-10-03T18:36:18.780Z,101666.75
2022-10-03T18:38:47.977Z,101659.38
2022-10-03T18:41:19.073Z,101653.09
2022-10-03T18:43:52.835Z,101658.09
2022-10-03T18:46:24.766Z,101659.75
2022-10-03T18:49:24.141Z,101664.69
2022-10-03T18:51:46.355Z,101658.13
2022-10-03T18:54:24.183Z,101652.13
2022-10-03T18:57:03.207Z,101653.50
2022-10-03T18:59:35.791Z,101655.97
2022-10-03T19:02:05.524Z,101657.59
2022-10-03T19:04:38.292Z,101661.97
2022-10-03T19:07:12.667Z,101663.06
2022-10-03T19:09:42.473Z,101662.00
2022-10-03T19:12:17.441Z,101670.75
2022-10-03T19:14:55.539Z,101665.28
2022-10-03T19:17:26.492Z,101673.19
2022-10-03T19:19:58.715Z,101673.47
2022-10-03T19:22:31.102Z,101676.19
2022-10-03T19:25:02.489Z,101676.75
2022-10-03T19:27:42.089Z,101680.03
2022-10-03T19:30:12.214Z,101676.75
2022-10-03T19:32:53.374Z,101670.19
2022-10-03T19:35:22.338Z,101682.78
2022-10-03T19:37:51.817Z,101672.38
2022-10-03T19:40:31.628Z,101671.84
2022-10-03T19:43:04.861Z,101675.13
2022-10-03T19:45:32.940Z,101679.50
2022-10-03T19:48:05.555Z,101664.19
2022-10-03T19:50:35.362Z,101669.09
2022-10-03T19:53:11.849Z,101665.25
2022-10-03T19:55:41.043Z,101660.88
2022-10-03T19:58:16.241Z,101662.50
2022-10-03T20:00:51.514Z,101664.44
2022-10-03T20:03:24.260Z,101663.03
2022-10-03T20:05:57.830Z,101660.88
2022-10-03T20:08:29.396Z,101667.91
2022-10-03T20:11:30.737Z,101667.06
2022-10-03T20:14:02.077Z,101675.00
2022-10-03T20:16:35.608Z,101670.31
2022-10-03T20:19:08.539Z,101668.34
2022-10-03T20:21:36.670Z,101666.16
2022-10-03T20:24:12.329Z,101661.78
2022-10-03T20:26:45.235Z,101659.28
2022-10-03T20:29:19.770Z,101656.81
2022-10-03T20:31:48.532Z,101657.88
2022-10-03T20:34:17.247Z,101654.09
2022-10-03T20:36:47.368Z,101658.22
2022-10-03T20:39:19.136Z,101665.88
2022-10-03T20:41:55.975Z,101666.09
2022-10-03T20:44:29.840Z,101651.31
2022-10-03T20:47:02.788Z,101649.09
2022-10-03T20:49:32.844Z,101647.94
2022-10-03T20:52:01.660Z,101645.22
2022-10-03T20:54:34.383Z,101646.56
2022-10-03T20:57:03.668Z,101655.63
2022-10-03T20:59:37.810Z,101659.13
2022-10-03T21:02:09.778Z,101652.25
2022-10-03T21:04:40.831Z,101647.03
2022-10-03T21:07:18.345Z,101655.22
2022-10-03T21:09:50.103Z,101643.16
2022-10-03T21:12:20.005Z,101648.03
2022-10-03T21:14:51.976Z,101640.63
2022-10-03T21:17:20.814Z,101636.88
2022-10-03T21:19:51.578Z,101634.53
2022-10-03T21:22:22.187Z,101630.59
2022-10-03T21:24:54.044Z,101639.09
2022-10-03T21:27:22.824Z,101641.88
2022-10-03T21:29:56.451Z,101644.84
2022-10-03T21:32:32.010Z,101638.53
2022-10-03T21:35:04.414Z,101637.72
2022-10-03T21:37:35.432Z,101633.38
2022-10-03T21:40:08.900Z,101633.09
2022-10-03T21:42:44.105Z,101627.66
2022-10-03T21:45:26.371Z,101627.09
2022-10-03T21:47:58.923Z,101626.59
2022-10-03T21:50:30.616Z,101641.94
2022-10-03T21:53:04.073Z,101633.69
2022-10-03T21:55:52.125Z,101634.22
2022-10-03T21:58:28.654Z,101629.81
2022-10-03T22:01:04.337Z,101630.91
2022-10-03T22:03:36.448Z,101631.94
2022-10-03T22:06:10.752Z,101633.81
2022-10-03T22:08:40.699Z,101638.22
2022-10-03T22:11:14.115Z,101636.88
2022-10-03T22:13:45.394Z,101644.53
2022-10-03T22:16:21.767Z,101631.34
2022-10-03T22:19:05.214Z,101632.97
2022-10-03T22:21:38.475Z,101629.63
2022-10-03T22:24:10.674Z,101612.72
2022-10-03T22:26:42.752Z,101606.22
2022-10-03T22:29:20.750Z,101612.50
2022-10-03T22:31:56.634Z,101603.81
2022-10-03T22:34:33.883Z,101600.25
2022-10-03T22:37:02.103Z,101599.19
2022-10-03T22:39:30.289Z,101605.25
2022-10-03T22:41:59.436Z,101599.19
2022-10-03T22:44:28.983Z,101610.03
2022-10-03T22:47:00.262Z,101609.53
2022-10-03T22:49:31.174Z,101607.56
2022-10-03T22:52:00.968Z,101589.53
2022-10-03T22:54:32.318Z,101593.78
2022-10-03T22:57:05.264Z,101592.44
2022-10-03T22:59:34.074Z,101595.19
2022-10-03T23:02:05.137Z,101597.06
2022-10-03T23:04:34.109Z,101584.72
2022-10-03T23:07:12.451Z,101590.19
2022-10-03T23:09:44.037Z,101577.63
2022-10-03T23:12:12.590Z,101583.28
2022-10-03T23:14:42.250Z,101570.69
2022-10-03T23:17:22.852Z,101582.94
2022-10-03T23:19:56.524Z,101580.72
2022-10-03T23:22:27.000Z,101582.94
2022-10-03T23:24:56.016Z,101575.22
2022-10-03T23:27:39.274Z,101570.38
2022-10-03T23:30:25.616Z,101576.88
2022-10-03T23:32:56.252Z,101576.44
2022-10-03T23:35:34.956Z,101575.09
2022-10-03T23:38:02.873Z,101569.34
2022-10-03T23:40:40.285Z,101566.53
2022-10-03T23:43:27.922Z,101560.53
2022-10-03T23:45:58.791Z,101560.31
2022-10-03T23:48:30.032Z,101566.16
2022-10-03T23:50:59.611Z,101559.03
2022-10-03T23:53:30.930Z,101558.78
2022-10-03T23:56:00.477Z,101551.94
2022-10-03T23:58:29.336Z,101555.81
